Terminal Aerodrome Forecast
Issued by NWS Sioux Falls, SD

Home | Current Version | Previous Version | Text Only | Print | Product List | Glossary On
Versions: 1 2 3 4 5 6 7 8 9 10 11 12
000
FTUS43 KFSD 012344
TAFHON
TAF
KHON 012344Z 0200/0224 16015G26KT P6SM SCT060
     FM020100 15013KT P6SM SCT040
     FM021500 16018G27KT P6SM SCT015 SCT040=

USA.gov is the U.S. government's official web portal to all federal, state and local government web resources and services.